createdAt,value
2022-10-23T00:03:41.194Z,2.37
2022-10-23T00:08:45.348Z,4.57
2022-10-23T00:13:50.494Z,4.90
2022-10-23T00:18:53.734Z,3.40
2022-10-23T00:23:56.886Z,3.07
2022-10-23T00:29:01.312Z,3.27
2022-10-23T00:34:08.076Z,5.00
2022-10-23T00:39:11.282Z,4.30
2022-10-23T00:44:47.576Z,4.30
2022-10-23T00:49:51.901Z,4.97
2022-10-23T00:54:54.861Z,2.83
2022-10-23T00:59:57.804Z,2.20
2022-10-23T01:05:02.158Z,2.40
2022-10-23T01:10:12.629Z,2.50
2022-10-23T01:15:20.564Z,2.80
2022-10-23T01:20:38.339Z,4.03
2022-10-23T01:26:03.663Z,4.53
2022-10-23T01:31:15.370Z,3.67
2022-10-23T01:36:21.788Z,4.30
2022-10-23T01:41:36.743Z,3.80
2022-10-23T01:46:43.547Z,2.33
2022-10-23T01:51:50.830Z,2.00
2022-10-23T01:56:55.159Z,3.40
2022-10-23T02:02:05.503Z,3.73
2022-10-23T02:07:09.115Z,3.80
2022-10-23T02:12:19.728Z,3.83
2022-10-23T02:17:32.380Z,4.13
2022-10-23T02:22:41.566Z,3.60
2022-10-23T02:27:48.777Z,3.70
2022-10-23T02:32:56.598Z,4.13
2022-10-23T02:38:02.048Z,3.93
2022-10-23T02:43:15.344Z,4.20
2022-10-23T02:48:24.216Z,4.03
2022-10-23T02:53:36.475Z,1.77
2022-10-23T02:58:46.335Z,2.07
2022-10-23T03:03:54.649Z,1.80
2022-10-23T03:09:00.629Z,2.23
2022-10-23T03:14:03.630Z,2.30
2022-10-23T03:19:08.025Z,2.23
2022-10-23T03:24:11.088Z,1.80
2022-10-23T03:29:18.227Z,1.97
2022-10-23T03:34:23.706Z,1.90
2022-10-23T03:39:29.276Z,2.90
2022-10-23T03:44:34.161Z,3.80
2022-10-23T03:49:38.706Z,2.87
2022-10-23T03:54:42.728Z,3.33
2022-10-23T03:59:46.708Z,2.77
2022-10-23T04:04:50.987Z,3.20
2022-10-23T04:09:55.057Z,2.80
2022-10-23T04:14:58.097Z,2.87
2022-10-23T04:20:02.556Z,2.73
2022-10-23T04:25:05.951Z,2.60
2022-10-23T04:30:12.117Z,2.80
2022-10-23T04:35:16.951Z,2.80
2022-10-23T04:40:19.928Z,3.07
2022-10-23T04:45:23.315Z,3.10
2022-10-23T04:50:27.885Z,2.50
2022-10-23T04:56:01.778Z,2.63
2022-10-23T05:01:24.141Z,2.47
2022-10-23T05:06:28.844Z,2.63
2022-10-23T05:11:52.075Z,2.33
2022-10-23T05:16:58.963Z,2.70
2022-10-23T05:22:03.683Z,2.47
2022-10-23T05:27:21.896Z,2.27
2022-10-23T05:32:27.037Z,2.73
2022-10-23T05:37:32.431Z,2.30
2022-10-23T05:42:49.625Z,2.53
2022-10-23T05:48:05.753Z,2.90
2022-10-23T05:53:43.979Z,2.63
2022-10-23T05:59:08.064Z,3.33
2022-10-23T06:04:24.369Z,2.93
2022-10-23T06:09:47.117Z,3.10
2022-10-23T06:14:51.029Z,3.60
2022-10-23T06:20:00.888Z,3.90
2022-10-23T06:25:06.241Z,4.80
2022-10-23T06:30:10.719Z,4.37
2022-10-23T06:35:13.807Z,6.40
2022-10-23T06:40:18.387Z,4.03
2022-10-23T06:45:47.447Z,4.40
2022-10-23T06:50:50.622Z,6.17
2022-10-23T06:56:02.151Z,8.97
2022-10-23T07:01:08.001Z,6.87
2022-10-23T07:06:12.447Z,6.97
2022-10-23T07:11:16.799Z,7.73
2022-10-23T07:16:23.637Z,6.80
2022-10-23T07:21:26.989Z,7.30
2022-10-23T07:26:34.769Z,8.40
2022-10-23T07:31:39.188Z,7.97
2022-10-23T07:37:07.997Z,6.93
2022-10-23T07:42:12.779Z,5.90
2022-10-23T07:47:17.328Z,6.27
2022-10-23T07:52:24.755Z,7.13
2022-10-23T07:57:49.410Z,7.93
2022-10-23T08:03:13.795Z,7.40
2022-10-23T08:08:17.431Z,6.43
2022-10-23T08:13:24.912Z,6.10
2022-10-23T08:18:33.272Z,7.13
2022-10-23T08:23:36.244Z,7.00
2022-10-23T08:28:40.662Z,6.40
2022-10-23T08:33:44.041Z,7.50
2022-10-23T08:38:47.437Z,6.60
2022-10-23T08:44:01.659Z,7.00
2022-10-23T08:49:21.706Z,6.90
2022-10-23T08:54:40.130Z,5.97
2022-10-23T08:59:48.266Z,6.10
2022-10-23T09:04:53.888Z,6.30
2022-10-23T09:10:10.074Z,6.80
2022-10-23T09:15:31.245Z,6.53
2022-10-23T09:20:37.102Z,6.67
2022-10-23T09:25:42.112Z,6.90
2022-10-23T09:30:46.442Z,6.33
2022-10-23T09:35:58.291Z,4.80
2022-10-23T09:41:04.376Z,13.27
2022-10-23T09:46:09.800Z,6.37
2022-10-23T09:51:19.084Z,7.30
2022-10-23T09:56:27.658Z,5.10
2022-10-23T10:01:36.189Z,6.57
2022-10-23T10:06:59.496Z,6.80
2022-10-23T10:12:19.487Z,6.40
2022-10-23T10:17:36.357Z,6.00
2022-10-23T10:22:48.296Z,6.27
2022-10-23T10:28:01.942Z,5.93
2022-10-23T10:33:15.738Z,5.70
2022-10-23T10:38:46.441Z,6.70
2022-10-23T10:44:00.043Z,6.27
2022-10-23T10:49:12.329Z,5.73
2022-10-23T10:54:41.000Z,6.03
2022-10-23T10:59:47.821Z,5.83
2022-10-23T11:04:58.161Z,4.90
2022-10-23T11:10:04.463Z,5.23
2022-10-23T11:15:15.244Z,5.10
2022-10-23T11:20:31.419Z,5.93
2022-10-23T11:25:58.799Z,5.17
2022-10-23T11:31:13.088Z,5.20
2022-10-23T11:36:20.202Z,4.67
2022-10-23T11:41:27.393Z,6.07
2022-10-23T11:46:36.870Z,5.80
2022-10-23T11:51:42.140Z,5.27
2022-10-23T11:56:55.756Z,5.47
2022-10-23T12:02:01.749Z,5.67
2022-10-23T12:07:17.924Z,5.57
2022-10-23T12:12:30.094Z,6.73
2022-10-23T12:17:37.615Z,5.60
2022-10-23T12:22:49.755Z,4.93
2022-10-23T12:28:01.295Z,5.60
2022-10-23T12:33:16.328Z,5.30
2022-10-23T12:38:23.726Z,5.20
2022-10-23T12:43:29.439Z,4.67
2022-10-23T12:48:34.739Z,4.30
2022-10-23T12:53:39.065Z,5.00
2022-10-23T12:58:49.552Z,5.90
2022-10-23T13:03:53.680Z,5.43
2022-10-23T13:08:58.400Z,5.33
2022-10-23T13:14:14.876Z,5.30
2022-10-23T13:19:25.910Z,5.10
2022-10-23T13:24:32.075Z,4.17
2022-10-23T13:29:36.207Z,4.30
2022-10-23T13:34:39.324Z,4.57
2022-10-23T13:39:44.283Z,4.23
2022-10-23T13:44:47.536Z,3.73
2022-10-23T13:49:50.628Z,4.53
2022-10-23T13:54:54.919Z,4.10
2022-10-23T13:59:58.155Z,4.60
2022-10-23T14:05:01.249Z,4.13
2022-10-23T14:10:06.545Z,5.50
2022-10-23T14:15:10.908Z,6.00
2022-10-23T14:20:14.276Z,5.17
2022-10-23T14:25:18.908Z,5.93
2022-10-23T14:30:21.846Z,6.10
2022-10-23T14:35:25.573Z,4.60
2022-10-23T14:40:29.867Z,5.70
2022-10-23T14:45:33.074Z,5.00
2022-10-23T14:50:38.107Z,4.80
2022-10-23T14:55:42.678Z,4.53
2022-10-23T15:00:45.594Z,5.87
2022-10-23T15:05:48.508Z,5.03
2022-10-23T15:10:52.795Z,4.30
2022-10-23T15:16:03.139Z,4.23
2022-10-23T15:21:08.187Z,8.93
2022-10-23T15:26:17.223Z,8.80
2022-10-23T15:31:41.918Z,4.97
2022-10-23T15:36:46.867Z,13.83
2022-10-23T15:41:52.627Z,9.10
2022-10-23T15:46:56.963Z,5.37
2022-10-23T15:52:00.325Z,4.60
2022-10-23T15:57:05.477Z,4.87
2022-10-23T16:02:09.017Z,4.80
2022-10-23T16:07:12.047Z,5.47
2022-10-23T16:12:17.198Z,5.13
2022-10-23T16:17:20.550Z,5.90
2022-10-23T16:22:23.464Z,5.53
2022-10-23T16:27:27.817Z,6.17
2022-10-23T16:32:30.720Z,5.53
2022-10-23T16:37:34.052Z,9.23
2022-10-23T16:42:44.194Z,11.60
2022-10-23T16:47:58.673Z,7.03
2022-10-23T16:53:01.609Z,7.20
2022-10-23T16:58:05.918Z,7.30
2022-10-23T17:03:09.671Z,7.93
2022-10-23T17:08:12.585Z,8.30
2022-10-23T17:13:16.825Z,8.93
2022-10-23T17:18:19.704Z,7.57
2022-10-23T17:23:23.401Z,8.80
2022-10-23T17:28:27.843Z,9.20
2022-10-23T17:33:30.744Z,11.40
2022-10-23T17:38:36.620Z,12.70
2022-10-23T17:43:41.258Z,12.60
2022-10-23T17:48:44.484Z,12.10
2022-10-23T17:53:49.626Z,13.23
2022-10-23T17:58:55.491Z,7.60
2022-10-23T18:04:01.655Z,7.10
2022-10-23T18:09:06.203Z,7.47
2022-10-23T18:14:11.513Z,7.27
2022-10-23T18:19:14.949Z,10.67
2022-10-23T18:24:19.028Z,6.87
2022-10-23T18:29:23.353Z,6.30
2022-10-23T18:34:26.910Z,5.87
2022-10-23T18:39:29.906Z,6.93
2022-10-23T18:44:34.179Z,6.23
2022-10-23T18:49:37.135Z,6.67
2022-10-23T18:54:40.127Z,7.33
2022-10-23T18:59:44.395Z,5.70
2022-10-23T19:04:47.540Z,5.80
2022-10-23T19:09:50.726Z,5.10
2022-10-23T19:14:55.836Z,4.57
2022-10-23T19:20:03.979Z,6.20
2022-10-23T19:25:11.355Z,4.90
2022-10-23T19:30:20.562Z,5.10
2022-10-23T19:35:25.626Z,4.13
2022-10-23T19:40:28.607Z,3.90
2022-10-23T19:45:33.049Z,4.60
2022-10-23T19:50:36.273Z,4.40
2022-10-23T19:55:39.206Z,4.80
2022-10-23T20:00:43.679Z,5.83
2022-10-23T20:05:46.728Z,6.10
2022-10-23T20:10:49.684Z,6.20
2022-10-23T20:15:53.965Z,7.50
2022-10-23T20:20:56.850Z,8.00
2022-10-23T20:26:06.593Z,6.97
2022-10-23T20:31:12.090Z,7.93
2022-10-23T20:36:24.699Z,8.87
2022-10-23T20:41:28.984Z,7.10
2022-10-23T20:46:33.599Z,6.47
2022-10-23T20:51:36.864Z,6.33
2022-10-23T20:56:40.862Z,5.70
2022-10-23T21:01:49.556Z,7.03
2022-10-23T21:07:11.150Z,7.37
2022-10-23T21:12:14.510Z,6.40
2022-10-23T21:17:18.790Z,9.03
2022-10-23T21:22:21.759Z,9.73
2022-10-23T21:27:24.656Z,9.70
2022-10-23T21:32:28.953Z,9.00
2022-10-23T21:37:31.864Z,7.40
2022-10-23T21:42:34.772Z,11.97
2022-10-23T21:47:39.040Z,14.40
2022-10-23T21:52:42.081Z,12.50
2022-10-23T21:57:45.227Z,10.47
2022-10-23T22:02:49.862Z,5.03
2022-10-23T22:07:53.230Z,5.90
2022-10-23T22:12:56.179Z,3.60
2022-10-23T22:18:00.519Z,4.03
2022-10-23T22:23:03.427Z,3.97
2022-10-23T22:28:06.362Z,3.80
2022-10-23T22:33:10.620Z,3.70
2022-10-23T22:38:14.073Z,3.63
2022-10-23T22:43:16.988Z,4.53
2022-10-23T22:48:21.317Z,7.53
2022-10-23T22:53:24.207Z,7.80
2022-10-23T22:58:27.721Z,4.30
2022-10-23T23:03:32.048Z,5.20
2022-10-23T23:08:36.028Z,5.10
2022-10-23T23:13:39.141Z,5.53
2022-10-23T23:18:43.386Z,5.10
2022-10-23T23:23:46.785Z,5.20
2022-10-23T23:28:51.892Z,5.80
2022-10-23T23:33:56.628Z,6.03
2022-10-23T23:38:59.997Z,6.40
2022-10-23T23:44:02.976Z,5.90
2022-10-23T23:49:07.270Z,6.43
2022-10-23T23:54:11.469Z,6.87
2022-10-23T23:59:14.459Z,5.53
